<?xml version="1.0" encoding="utf-8"?>
<gpx xmlns:xsi="http://www.w3.org/2001/XMLSchema-instance" xmlns:xsd="http://www.w3.org/2001/XMLSchema" version="1.1" creator="Shapelink.com" xmlns="http://www.topografix.com/GPX/1/1" xmlns:gpxtpx="http://www.garmin.com/xmlschemas/TrackPointExtension/v1">
  <metadata>
    <name>Löpning 1.02 km, 2020-07-11</name>
    <desc></desc>
    <author><name>Marian Moron</name></author> 
    <time>2020-07-11T12:12:12Z</time>
  </metadata>
  <trk>
    <name>Löpning 1.02 km, 2020-07-11</name>
    <trkseg>
      <trkpt lat="51.216841723326" lon="4.469639374005">
        <ele>0.6</ele>
        <time>2020-07-11T12:12:12Z</time>
      </trkpt>
      <trkpt lat="51.216684478882" lon="4.469797037544">
        <ele>0</ele>
        <time>2020-07-11T12:12:27Z</time>
      </trkpt>
      <trkpt lat="51.216608790325" lon="4.470064587792">
        <ele>1.6</ele>
        <time>2020-07-11T12:12:37Z</time>
      </trkpt>
      <trkpt lat="51.216581800607" lon="4.470181347659">
        <ele>1</ele>
        <time>2020-07-11T12:12:41Z</time>
      </trkpt>
      <trkpt lat="51.216474596106" lon="4.470523496817">
        <ele>3</ele>
        <time>2020-07-11T12:13:35Z</time>
      </trkpt>
      <trkpt lat="51.216472500631" lon="4.470550235078">
        <ele>3.6</ele>
        <time>2020-07-11T12:13:36Z</time>
      </trkpt>
      <trkpt lat="51.216440649411" lon="4.470854078953">
        <ele>10.6</ele>
        <time>2020-07-11T12:13:47Z</time>
      </trkpt>
      <trkpt lat="51.21644995332" lon="4.471152474593">
        <ele>12</ele>
        <time>2020-07-11T12:13:57Z</time>
      </trkpt>
      <trkpt lat="51.21647593721" lon="4.471457491934">
        <ele>14.8</ele>
        <time>2020-07-11T12:14:07Z</time>
      </trkpt>
      <trkpt lat="51.216478200323" lon="4.471506945144">
        <ele>14.8</ele>
        <time>2020-07-11T12:14:09Z</time>
      </trkpt>
      <trkpt lat="51.216458083763" lon="4.471606857392">
        <ele>8</ele>
        <time>2020-07-11T12:14:21Z</time>
      </trkpt>
      <trkpt lat="51.216454228089" lon="4.471631751635">
        <ele>7.2</ele>
        <time>2020-07-11T12:14:22Z</time>
      </trkpt>
      <trkpt lat="51.21633093034" lon="4.471799557273">
        <ele>0</ele>
        <time>2020-07-11T12:14:32Z</time>
      </trkpt>
      <trkpt lat="51.216197406673" lon="4.471843143153">
        <ele>0</ele>
        <time>2020-07-11T12:14:41Z</time>
      </trkpt>
      <trkpt lat="51.21609623714" lon="4.471911120362">
        <ele>0</ele>
        <time>2020-07-11T12:14:52Z</time>
      </trkpt>
      <trkpt lat="51.21593027552" lon="4.47201354718">
        <ele>0</ele>
        <time>2020-07-11T12:15:02Z</time>
      </trkpt>
      <trkpt lat="51.215741515132" lon="4.472053193567">
        <ele>0</ele>
        <time>2020-07-11T12:15:11Z</time>
      </trkpt>
      <trkpt lat="51.21569055318" lon="4.472059228535">
        <ele>0</ele>
        <time>2020-07-11T12:15:13Z</time>
      </trkpt>
      <trkpt lat="51.215650403879" lon="4.472079596552">
        <ele>0</ele>
        <time>2020-07-11T12:15:16Z</time>
      </trkpt>
      <trkpt lat="51.215470444486" lon="4.472144723915">
        <ele>0</ele>
        <time>2020-07-11T12:15:26Z</time>
      </trkpt>
      <trkpt lat="51.215395929395" lon="4.472180179352">
        <ele>0</ele>
        <time>2020-07-11T12:15:30Z</time>
      </trkpt>
      <trkpt lat="51.215252766543" lon="4.472299453789">
        <ele>2.8</ele>
        <time>2020-07-11T12:15:54Z</time>
      </trkpt>
      <trkpt lat="51.215082194878" lon="4.472392325241">
        <ele>4</ele>
        <time>2020-07-11T12:16:08Z</time>
      </trkpt>
      <trkpt lat="51.214893266852" lon="4.472438174234">
        <ele>0</ele>
        <time>2020-07-11T12:16:21Z</time>
      </trkpt>
      <trkpt lat="51.214747086516" lon="4.472499110647">
        <ele>0</ele>
        <time>2020-07-11T12:16:33Z</time>
      </trkpt>
      <trkpt lat="51.21464449206" lon="4.472547641848">
        <ele>0</ele>
        <time>2020-07-11T12:16:41Z</time>
      </trkpt>
      <trkpt lat="51.214483056666" lon="4.472610925193">
        <ele>0</ele>
        <time>2020-07-11T12:16:55Z</time>
      </trkpt>
      <trkpt lat="51.214489007815" lon="4.472686781388">
        <ele>0</ele>
        <time>2020-07-11T12:16:59Z</time>
      </trkpt>
      <trkpt lat="51.214556649748" lon="4.472962462079">
        <ele>2</ele>
        <time>2020-07-11T12:17:10Z</time>
      </trkpt>
      <trkpt lat="51.214578442688" lon="4.473248536326">
        <ele>4.4</ele>
        <time>2020-07-11T12:17:22Z</time>
      </trkpt>
      <trkpt lat="51.214576514851" lon="4.473372169351">
        <ele>5</ele>
        <time>2020-07-11T12:17:27Z</time>
      </trkpt>
      <trkpt lat="51.214498730819" lon="4.473642317988">
        <ele>3.4</ele>
        <time>2020-07-11T12:17:40Z</time>
      </trkpt>
      <trkpt lat="51.214362105849" lon="4.473855553524">
        <ele>0.6</ele>
        <time>2020-07-11T12:17:49Z</time>
      </trkpt>
      <trkpt lat="51.214240149204" lon="4.474035848193">
        <ele>0</ele>
        <time>2020-07-11T12:18:00Z</time>
      </trkpt>
      <trkpt lat="51.214392951241" lon="4.474191583895">
        <ele>0</ele>
        <time>2020-07-11T12:18:12Z</time>
      </trkpt>
      <trkpt lat="51.214455731672" lon="4.474457206306">
        <ele>0</ele>
        <time>2020-07-11T12:18:26Z</time>
      </trkpt>
      <trkpt lat="51.214376857993" lon="4.474696090456">
        <ele>0</ele>
        <time>2020-07-11T12:18:41Z</time>
      </trkpt>
      <trkpt lat="51.214285160007" lon="4.474813185599">
        <ele>0</ele>
        <time>2020-07-11T12:18:51Z</time>
      </trkpt>
      <trkpt lat="51.214271665148" lon="4.474897591332">
        <ele>0</ele>
        <time>2020-07-11T12:18:57Z</time>
      </trkpt>
      <trkpt lat="51.214272503338" lon="4.474926592706">
        <ele>0</ele>
        <time>2020-07-11T12:18:59Z</time>
      </trkpt>
      <trkpt lat="51.214282310161" lon="4.47496649055">
        <ele>0</ele>
        <time>2020-07-11T12:19:02Z</time>
      </trkpt>
      <trkpt lat="51.21428826131" lon="4.474997252123">
        <ele>0</ele>
        <time>2020-07-11T12:19:04Z</time>
      </trkpt>
      <trkpt lat="51.214302175264" lon="4.475041173279">
        <ele>0.4</ele>
        <time>2020-07-11T12:19:06Z</time>
      </trkpt>
      <trkpt lat="51.214315502485" lon="4.475272094624">
        <ele>8.2</ele>
        <time>2020-07-11T12:19:17Z</time>
      </trkpt>
      <trkpt lat="51.214197485333" lon="4.475531095334">
        <ele>10.4</ele>
        <time>2020-07-11T12:19:28Z</time>
      </trkpt>
      <trkpt lat="51.214086089882" lon="4.475743995594">
        <ele>11.4</ele>
        <time>2020-07-11T12:19:35Z</time>
      </trkpt>
      <trkpt lat="51.214091035203" lon="4.475799316134">
        <ele>10.4</ele>
        <time>2020-07-11T12:19:38Z</time>
      </trkpt>
      <trkpt lat="51.214194803125" lon="4.476046749822">
        <ele>9.4</ele>
        <time>2020-07-11T12:19:54Z</time>
      </trkpt>
      <trkpt lat="51.214296307934" lon="4.476283370859">
        <ele>6.2</ele>
        <time>2020-07-11T12:20:04Z</time>
      </trkpt>
      <trkpt lat="51.214326566593" lon="4.476586376544">
        <ele>2</ele>
        <time>2020-07-11T12:20:16Z</time>
      </trkpt>
      <trkpt lat="51.214322459462" lon="4.476610767873">
        <ele>1.8</ele>
        <time>2020-07-11T12:20:17Z</time>
      </trkpt>
      <trkpt lat="51.214322962376" lon="4.476810089455">
        <ele>0.2</ele>
        <time>2020-07-11T12:20:25Z</time>
      </trkpt>
      <trkpt lat="51.214318519969" lon="4.476977895093">
        <ele>0</ele>
        <time>2020-07-11T12:20:33Z</time>
      </trkpt>
      <trkpt lat="51.214318268512" lon="4.477055595306">
        <ele>0</ele>
        <time>2020-07-11T12:20:37Z</time>
      </trkpt>
      <trkpt lat="51.214385407531" lon="4.477323397011">
        <ele>0</ele>
        <time>2020-07-11T12:20:48Z</time>
      </trkpt>
      <trkpt lat="51.214469729445" lon="4.477599161521">
        <ele>0</ele>
        <time>2020-07-11T12:21:03Z</time>
      </trkpt>
      <trkpt lat="51.214458497699" lon="4.477824802269">
        <ele>0</ele>
        <time>2020-07-11T12:21:12Z</time>
      </trkpt>
      <trkpt lat="51.214465035581" lon="4.478095621458">
        <ele>0</ele>
        <time>2020-07-11T12:21:24Z</time>
      </trkpt>
      <trkpt lat="51.214596463773" lon="4.478292093194">
        <ele>0</ele>
        <time>2020-07-11T12:21:35Z</time>
      </trkpt>
      <trkpt lat="51.214751445104" lon="4.478472471682">
        <ele>0</ele>
        <time>2020-07-11T12:21:46Z</time>
      </trkpt>
      <trkpt lat="51.21490852191" lon="4.478640528777">
        <ele>0</ele>
        <time>2020-07-11T12:21:56Z</time>
      </trkpt>
      <trkpt lat="51.215089654769" lon="4.47877103496">
        <ele>0</ele>
        <time>2020-07-11T12:22:06Z</time>
      </trkpt>
      <trkpt lat="51.215270284714" lon="4.478822918921">
        <ele>1.6</ele>
        <time>2020-07-11T12:22:15Z</time>
      </trkpt>
      <trkpt lat="51.215460302387" lon="4.478864828421">
        <ele>0</ele>
        <time>2020-07-11T12:22:26Z</time>
      </trkpt>
      <trkpt lat="51.215648224585" lon="4.478939427331">
        <ele>0</ele>
        <time>2020-07-11T12:22:35Z</time>
      </trkpt>
      <trkpt lat="51.215833632213" lon="4.47905434318">
        <ele>0</ele>
        <time>2020-07-11T12:22:45Z</time>
      </trkpt>
      <trkpt lat="51.215989451734" lon="4.47924964145">
        <ele>0</ele>
        <time>2020-07-11T12:22:54Z</time>
      </trkpt>
      <trkpt lat="51.2161079718" lon="4.479325162369">
        <ele>0</ele>
        <time>2020-07-11T12:23:00Z</time>
      </trkpt>
      <trkpt lat="51.216149126929" lon="4.479636214678">
        <ele>0</ele>
        <time>2020-07-11T12:23:08Z</time>
      </trkpt>
      <trkpt lat="51.216161699779" lon="4.479970903945">
        <ele>0.6</ele>
        <time>2020-07-11T12:23:19Z</time>
      </trkpt>
    </trkseg>
  </trk>
</gpx>